sensor_id;sensor_type;location;lat;lon;timestamp;pressure;altitude;pressure_sealevel;temperature;humidity
71768;BME280;59604;52.138;5.446;2022-10-04T00:00:27;102563.94;;;11.41;92.99
71768;BME280;59604;52.138;5.446;2022-10-04T00:03:06;102556.19;;;11.40;93.19
71768;BME280;59604;52.138;5.446;2022-10-04T00:05:35;102552.84;;;11.37;93.50
71768;BME280;59604;52.138;5.446;2022-10-04T00:08:36;102555.81;;;11.34;93.84
71768;BME280;59604;52.138;5.446;2022-10-04T00:11:26;102559.81;;;11.39;94.08
71768;BME280;59604;52.138;5.446;2022-10-04T00:13:58;102555.34;;;11.39;94.11
71768;BME280;59604;52.138;5.446;2022-10-04T00:16:29;102558.97;;;11.38;94.03
71768;BME280;59604;52.138;5.446;2022-10-04T00:24:34;102546.16;;;11.43;93.94
71768;BME280;59604;52.138;5.446;2022-10-04T00:27:19;102541.03;;;11.42;93.75
71768;BME280;59604;52.138;5.446;2022-10-04T00:32:29;102536.59;;;11.42;93.84
71768;BME280;59604;52.138;5.446;2022-10-04T00:34:58;102536.41;;;11.44;93.93
71768;BME280;59604;52.138;5.446;2022-10-04T00:37:26;102525.72;;;11.45;93.75
71768;BME280;59604;52.138;5.446;2022-10-04T00:40:10;102521.72;;;11.41;93.99
71768;BME280;59604;52.138;5.446;2022-10-04T00:42:47;102521.72;;;11.41;94.31
71768;BME280;59604;52.138;5.446;2022-10-04T00:48:09;102512.16;;;11.40;94.41
71768;BME280;59604;52.138;5.446;2022-10-04T00:50:42;102507.56;;;11.42;94.46
71768;BME280;59604;52.138;5.446;2022-10-04T00:53:19;102515.47;;;11.42;94.48
71768;BME280;59604;52.138;5.446;2022-10-04T00:55:51;102513.50;;;11.44;94.31
71768;BME280;59604;52.138;5.446;2022-10-04T00:58:28;102516.81;;;11.46;94.46
71768;BME280;59604;52.138;5.446;2022-10-04T01:00:56;102521.81;;;11.49;94.48
71768;BME280;59604;52.138;5.446;2022-10-04T01:03:33;102520.00;;;11.50;94.46
71768;BME280;59604;52.138;5.446;2022-10-04T01:06:04;102511.09;;;11.51;94.13
71768;BME280;59604;52.138;5.446;2022-10-04T01:08:35;102504.00;;;11.51;94.18
71768;BME280;59604;52.138;5.446;2022-10-04T01:11:09;102503.00;;;11.52;94.03
71768;BME280;59604;52.138;5.446;2022-10-04T01:13:43;102497.72;;;11.52;93.95
71768;BME280;59604;52.138;5.446;2022-10-04T01:16:15;102495.41;;;11.49;94.17
71768;BME280;59604;52.138;5.446;2022-10-04T01:18:44;102497.38;;;11.47;93.99
71768;BME280;59604;52.138;5.446;2022-10-04T01:28:56;102479.13;;;11.36;93.68
71768;BME280;59604;52.138;5.446;2022-10-04T01:31:27;102474.97;;;11.33;93.79
71768;BME280;59604;52.138;5.446;2022-10-04T01:33:54;102467.41;;;11.30;93.79
71768;BME280;59604;52.138;5.446;2022-10-04T01:36:21;102463.38;;;11.26;93.80
71768;BME280;59604;52.138;5.446;2022-10-04T01:38:48;102460.91;;;11.25;93.79
71768;BME280;59604;52.138;5.446;2022-10-04T01:41:20;102461.91;;;11.24;94.12
71768;BME280;59604;52.138;5.446;2022-10-04T01:43:51;102449.66;;;11.23;94.03
71768;BME280;59604;52.138;5.446;2022-10-04T01:46:26;102464.53;;;11.24;94.24
71768;BME280;59604;52.138;5.446;2022-10-04T01:48:55;102466.19;;;11.25;94.36
71768;BME280;59604;52.138;5.446;2022-10-04T01:51:30;102464.25;;;11.27;94.31
71768;BME280;59604;52.138;5.446;2022-10-04T01:54:05;102463.72;;;11.23;94.27
71768;BME280;59604;52.138;5.446;2022-10-04T01:57:10;102457.06;;;11.19;94.06
71768;BME280;59604;52.138;5.446;2022-10-04T02:00:09;102447.97;;;11.13;94.21
71768;BME280;59604;52.138;5.446;2022-10-04T02:02:51;102436.19;;;11.08;93.96
71768;BME280;59604;52.138;5.446;2022-10-04T02:05:31;102433.34;;;11.01;93.72
71768;BME280;59604;52.138;5.446;2022-10-04T02:08:04;102425.06;;;10.96;94.10
71768;BME280;59604;52.138;5.446;2022-10-04T02:10:33;102424.69;;;10.91;93.90
71768;BME280;59604;52.138;5.446;2022-10-04T02:13:10;102425.97;;;10.87;93.90
71768;BME280;59604;52.138;5.446;2022-10-04T02:15:39;102415.72;;;10.84;94.49
71768;BME280;59604;52.138;5.446;2022-10-04T02:18:14;102411.88;;;10.78;94.07
71768;BME280;59604;52.138;5.446;2022-10-04T02:20:43;102408.56;;;10.76;94.31
71768;BME280;59604;52.138;5.446;2022-10-04T02:23:11;102414.81;;;10.75;94.81
71768;BME280;59604;52.138;5.446;2022-10-04T02:25:38;102411.34;;;10.75;94.56
71768;BME280;59604;52.138;5.446;2022-10-04T02:28:08;102405.25;;;10.74;94.30
71768;BME280;59604;52.138;5.446;2022-10-04T02:30:42;102387.63;;;10.75;94.32
71768;BME280;59604;52.138;5.446;2022-10-04T02:33:10;102381.69;;;10.73;94.49
71768;BME280;59604;52.138;5.446;2022-10-04T02:35:45;102377.53;;;10.70;94.43
71768;BME280;59604;52.138;5.446;2022-10-04T02:38:22;102377.53;;;10.70;94.54
71768;BME280;59604;52.138;5.446;2022-10-04T02:40:56;102376.88;;;10.68;94.40
71768;BME280;59604;52.138;5.446;2022-10-04T02:43:28;102368.44;;;10.64;94.23
71768;BME280;59604;52.138;5.446;2022-10-04T02:46:16;102371.38;;;10.61;94.53
71768;BME280;59604;52.138;5.446;2022-10-04T02:48:59;102371.50;;;10.60;94.33
71768;BME280;59604;52.138;5.446;2022-10-04T02:51:39;102372.78;;;10.56;94.41
71768;BME280;59604;52.138;5.446;2022-10-04T02:54:13;102364.66;;;10.49;94.20
71768;BME280;59604;52.138;5.446;2022-10-04T02:56:42;102369.53;;;10.44;94.79
71768;BME280;59604;52.138;5.446;2022-10-04T02:59:15;102373.16;;;10.43;94.22
71768;BME280;59604;52.138;5.446;2022-10-04T03:01:51;102360.28;;;10.40;94.46
71768;BME280;59604;52.138;5.446;2022-10-04T03:04:21;102364.03;;;10.37;94.08
71768;BME280;59604;52.138;5.446;2022-10-04T03:06:49;102357.41;;;10.33;94.49
71768;BME280;59604;52.138;5.446;2022-10-04T03:09:18;102350.50;;;10.32;94.55
71768;BME280;59604;52.138;5.446;2022-10-04T03:11:46;102346.22;;;10.31;94.57
71768;BME280;59604;52.138;5.446;2022-10-04T03:14:17;102348.00;;;10.31;94.49
71768;BME280;59604;52.138;5.446;2022-10-04T03:16:47;102337.78;;;10.28;94.90
71768;BME280;59604;52.138;5.446;2022-10-04T03:19:16;102340.69;;;10.25;94.75
71768;BME280;59604;52.138;5.446;2022-10-04T03:21:46;102345.94;;;10.25;94.91
71768;BME280;59604;52.138;5.446;2022-10-04T03:24:21;102333.88;;;10.22;95.04
71768;BME280;59604;52.138;5.446;2022-10-04T03:26:52;102325.47;;;10.19;94.95
71768;BME280;59604;52.138;5.446;2022-10-04T03:29:22;102330.88;;;10.17;94.78
71768;BME280;59604;52.138;5.446;2022-10-04T03:31:51;102325.09;;;10.13;94.92
71768;BME280;59604;52.138;5.446;2022-10-04T03:34:24;102328.84;;;10.11;94.89
71768;BME280;59604;52.138;5.446;2022-10-04T03:36:52;102316.66;;;10.10;94.79
71768;BME280;59604;52.138;5.446;2022-10-04T03:39:31;102319.59;;;10.07;94.69
71768;BME280;59604;52.138;5.446;2022-10-04T03:42:19;102318.75;;;10.06;95.05
71768;BME280;59604;52.138;5.446;2022-10-04T03:44:48;102321.84;;;10.02;94.80
71768;BME280;59604;52.138;5.446;2022-10-04T03:47:28;102324.75;;;9.99;94.89
71768;BME280;59604;52.138;5.446;2022-10-04T03:49:58;102325.88;;;9.96;95.01
71768;BME280;59604;52.138;5.446;2022-10-04T03:52:30;102321.72;;;9.93;94.82
71768;BME280;59604;52.138;5.446;2022-10-04T03:55:04;102314.16;;;9.90;94.84
71768;BME280;59604;52.138;5.446;2022-10-04T03:57:32;102320.22;;;9.91;95.13
71768;BME280;59604;52.138;5.446;2022-10-04T04:00:00;102317.72;;;9.89;95.11
71768;BME280;59604;52.138;5.446;2022-10-04T04:02:34;102316.25;;;9.87;95.14
71768;BME280;59604;52.138;5.446;2022-10-04T04:10:20;102304.94;;;9.77;94.99
71768;BME280;59604;52.138;5.446;2022-10-04T04:12:52;102305.38;;;9.72;95.02
71768;BME280;59604;52.138;5.446;2022-10-04T04:15:26;102303.69;;;9.71;94.93
71768;BME280;59604;52.138;5.446;2022-10-04T04:18:02;102302.31;;;9.67;94.73
71768;BME280;59604;52.138;5.446;2022-10-04T04:20:35;102301.78;;;9.63;95.18
71768;BME280;59604;52.138;5.446;2022-10-04T04:25:43;102294.50;;;9.57;94.95
71768;BME280;59604;52.138;5.446;2022-10-04T04:30:56;102287.19;;;9.51;94.59
71768;BME280;59604;52.138;5.446;2022-10-04T04:33:28;102283.19;;;9.47;94.61
71768;BME280;59604;52.138;5.446;2022-10-04T04:36:04;102294.00;;;9.44;94.26
71768;BME280;59604;52.138;5.446;2022-10-04T04:38:31;102288.84;;;9.42;94.26
71768;BME280;59604;52.138;5.446;2022-10-04T04:41:06;102292.47;;;9.41;94.40
71768;BME280;59604;52.138;5.446;2022-10-04T04:43:35;102284.03;;;9.38;94.30
71768;BME280;59604;52.138;5.446;2022-10-04T04:46:01;102299.16;;;9.36;94.43
71768;BME280;59604;52.138;5.446;2022-10-04T04:48:58;102294.16;;;9.33;94.32
71768;BME280;59604;52.138;5.446;2022-10-04T04:51:27;102291.66;;;9.31;94.19
71768;BME280;59604;52.138;5.446;2022-10-04T04:53:54;102299.56;;;9.31;94.17
71768;BME280;59604;52.138;5.446;2022-10-04T04:56:25;102285.75;;;9.29;94.22
71768;BME280;59604;52.138;5.446;2022-10-04T04:58:54;102290.31;;;9.27;94.51
71768;BME280;59604;52.138;5.446;2022-10-04T05:06:44;102276.38;;;9.17;94.58
71768;BME280;59604;52.138;5.446;2022-10-04T05:09:35;102283.03;;;9.11;94.57
71768;BME280;59604;52.138;5.446;2022-10-04T05:14:42;102294.63;;;9.09;94.59
71768;BME280;59604;52.138;5.446;2022-10-04T05:17:19;102293.81;;;9.08;94.48
71768;BME280;59604;52.138;5.446;2022-10-04T05:19:49;102299.91;;;9.09;94.33
71768;BME280;59604;52.138;5.446;2022-10-04T05:22:19;102293.25;;;9.05;94.31
71768;BME280;59604;52.138;5.446;2022-10-04T05:24:51;102299.50;;;9.04;94.08
71768;BME280;59604;52.138;5.446;2022-10-04T05:27:27;102298.81;;;9.02;94.06
71768;BME280;59604;52.138;5.446;2022-10-04T05:35:22;102292.31;;;8.96;94.11
71768;BME280;59604;52.138;5.446;2022-10-04T05:38:08;102296.75;;;8.95;94.73
71768;BME280;59604;52.138;5.446;2022-10-04T05:43:21;102297.84;;;8.93;94.48
71768;BME280;59604;52.138;5.446;2022-10-04T05:48:36;102299.94;;;8.89;94.99
71768;BME280;59604;52.138;5.446;2022-10-04T05:51:22;102301.59;;;8.90;94.78
71768;BME280;59604;52.138;5.446;2022-10-04T05:53:49;102299.78;;;8.91;94.98
71768;BME280;59604;52.138;5.446;2022-10-04T06:04:18;102302.28;;;9.02;95.40
71768;BME280;59604;52.138;5.446;2022-10-04T06:12:41;102300.06;;;9.07;95.04
71768;BME280;59604;52.138;5.446;2022-10-04T06:15:19;102309.59;;;9.08;94.96
71768;BME280;59604;52.138;5.446;2022-10-04T06:18:15;102314.72;;;9.10;95.48
71768;BME280;59604;52.138;5.446;2022-10-04T06:23:27;102310.28;;;9.10;95.11
71768;BME280;59604;52.138;5.446;2022-10-04T06:26:06;102305.47;;;9.06;95.16
71768;BME280;59604;52.138;5.446;2022-10-04T06:28:44;102309.75;;;9.07;95.08
71768;BME280;59604;52.138;5.446;2022-10-04T06:33:58;102296.44;;;9.08;95.29
71768;BME280;59604;52.138;5.446;2022-10-04T06:39:47;102284.81;;;9.11;95.51
71768;BME280;59604;52.138;5.446;2022-10-04T06:50:48;102270.06;;;9.37;96.07
71768;BME280;59604;52.138;5.446;2022-10-04T07:01:47;102258.75;;;9.82;96.60
71768;BME280;59604;52.138;5.446;2022-10-04T07:04:38;102247.91;;;9.95;96.53
71768;BME280;59604;52.138;5.446;2022-10-04T07:07:31;102240.75;;;10.05;96.71
71768;BME280;59604;52.138;5.446;2022-10-04T07:12:28;102253.38;;;10.20;96.24
71768;BME280;59604;52.138;5.446;2022-10-04T07:15:00;102248.50;;;10.25;96.13
71768;BME280;59604;52.138;5.446;2022-10-04T07:17:42;102254.16;;;10.30;96.21
71768;BME280;59604;52.138;5.446;2022-10-04T07:20:20;102250.13;;;10.35;96.12
71768;BME280;59604;52.138;5.446;2022-10-04T07:22:59;102254.09;;;10.39;96.17
71768;BME280;59604;52.138;5.446;2022-10-04T07:25:31;102252.97;;;10.42;95.78
71768;BME280;59604;52.138;5.446;2022-10-04T07:30:58;102253.34;;;10.47;95.93
71768;BME280;59604;52.138;5.446;2022-10-04T07:33:32;102254.69;;;10.51;95.59
71768;BME280;59604;52.138;5.446;2022-10-04T07:36:10;102257.03;;;10.54;95.69
71768;BME280;59604;52.138;5.446;2022-10-04T07:39:05;102266.78;;;10.62;95.85
71768;BME280;59604;52.138;5.446;2022-10-04T07:41:46;102264.22;;;10.70;95.62
71768;BME280;59604;52.138;5.446;2022-10-04T07:44:34;102264.97;;;10.80;95.42
71768;BME280;59604;52.138;5.446;2022-10-04T07:47:08;102262.06;;;10.92;95.28
71768;BME280;59604;52.138;5.446;2022-10-04T07:49:39;102261.81;;;11.03;94.94
71768;BME280;59604;52.138;5.446;2022-10-04T08:09:36;102277.19;;;11.42;93.17
71768;BME280;59604;52.138;5.446;2022-10-04T08:54:56;102256.50;;;12.30;89.14
71768;BME280;59604;52.138;5.446;2022-10-04T09:00:13;102266.25;;;12.46;88.37
71768;BME280;59604;52.138;5.446;2022-10-04T09:09:19;102256.66;;;12.53;87.95
71768;BME280;59604;52.138;5.446;2022-10-04T09:14:24;102252.69;;;12.65;87.21
71768;BME280;59604;52.138;5.446;2022-10-04T09:17:19;102259.28;;;12.77;87.50
71768;BME280;59604;52.138;5.446;2022-10-04T09:20:20;102250.88;;;12.82;87.28
71768;BME280;59604;52.138;5.446;2022-10-04T09:28:39;102256.78;;;12.92;86.18
71768;BME280;59604;52.138;5.446;2022-10-04T09:34:32;102251.47;;;13.09;85.79
71768;BME280;59604;52.138;5.446;2022-10-04T10:09:05;102227.44;;;13.66;82.97
71768;BME280;59604;52.138;5.446;2022-10-04T10:23:43;102230.06;;;14.20;81.99
71768;BME280;59604;52.138;5.446;2022-10-04T10:29:30;102239.25;;;14.09;81.32
71768;BME280;59604;52.138;5.446;2022-10-04T10:38:34;102237.94;;;14.28;80.83
71768;BME280;59604;52.138;5.446;2022-10-04T10:47:17;102233.09;;;14.78;79.83
71768;BME280;59604;52.138;5.446;2022-10-04T11:01:12;102211.56;;;15.17;78.03
71768;BME280;59604;52.138;5.446;2022-10-04T11:12:31;102197.44;;;15.46;76.16
71768;BME280;59604;52.138;5.446;2022-10-04T11:23:50;102198.28;;;16.04;73.91
71768;BME280;59604;52.138;5.446;2022-10-04T11:29:45;102185.94;;;16.18;72.45
71768;BME280;59604;52.138;5.446;2022-10-04T11:32:29;102185.81;;;16.05;71.76
71768;BME280;59604;52.138;5.446;2022-10-04T11:38:09;102173.53;;;16.04;71.34
71768;BME280;59604;52.138;5.446;2022-10-04T11:50:24;102173.84;;;16.43;70.93
71768;BME280;59604;52.138;5.446;2022-10-04T12:11:59;102166.06;;;17.05;68.90
71768;BME280;59604;52.138;5.446;2022-10-04T12:35:31;102130.53;;;16.50;68.52
71768;BME280;59604;52.138;5.446;2022-10-04T12:43:34;102120.22;;;17.09;66.93
71768;BME280;59604;52.138;5.446;2022-10-04T12:56:13;102108.00;;;17.48;65.40
71768;BME280;59604;52.138;5.446;2022-10-04T13:07:30;102099.22;;;17.68;65.68
71768;BME280;59604;52.138;5.446;2022-10-04T13:13:04;102094.53;;;17.76;62.81
71768;BME280;59604;52.138;5.446;2022-10-04T13:15:43;102096.00;;;17.79;63.08
71768;BME280;59604;52.138;5.446;2022-10-04T13:27:04;102092.09;;;17.95;62.87
71768;BME280;59604;52.138;5.446;2022-10-04T13:29:40;102096.16;;;18.04;62.84
71768;BME280;59604;52.138;5.446;2022-10-04T13:32:23;102080.59;;;18.01;62.27
71768;BME280;59604;52.138;5.446;2022-10-04T13:55:18;102024.59;;;18.07;60.97
71768;BME280;59604;52.138;5.446;2022-10-04T14:01:05;102012.28;;;18.13;61.46
71768;BME280;59604;52.138;5.446;2022-10-04T14:04:12;102012.06;;;18.15;62.13
71768;BME280;59604;52.138;5.446;2022-10-04T14:09:45;102008.19;;;18.04;63.26
71768;BME280;59604;52.138;5.446;2022-10-04T14:21:18;102021.09;;;18.14;62.61
71768;BME280;59604;52.138;5.446;2022-10-04T14:24:40;102010.25;;;18.08;63.54
71768;BME280;59604;52.138;5.446;2022-10-04T14:30:04;102013.97;;;17.94;64.02
71768;BME280;59604;52.138;5.446;2022-10-04T14:33:00;102011.69;;;17.98;64.99
71768;BME280;59604;52.138;5.446;2022-10-04T14:35:32;102018.44;;;18.00;64.73
71768;BME280;59604;52.138;5.446;2022-10-04T14:41:06;102022.72;;;18.15;65.94
71768;BME280;59604;52.138;5.446;2022-10-04T14:48:55;102015.06;;;18.45;64.70
71768;BME280;59604;52.138;5.446;2022-10-04T14:51:30;102014.44;;;18.43;64.20
71768;BME280;59604;52.138;5.446;2022-10-04T14:54:09;102018.56;;;18.39;64.72
71768;BME280;59604;52.138;5.446;2022-10-04T14:56:44;102013.88;;;18.34;64.48
71768;BME280;59604;52.138;5.446;2022-10-04T15:05:22;102022.69;;;18.28;65.37
71768;BME280;59604;52.138;5.446;2022-10-04T15:07:55;102019.22;;;18.21;65.33
71768;BME280;59604;52.138;5.446;2022-10-04T15:10:35;102028.06;;;18.15;65.67
71768;BME280;59604;52.138;5.446;2022-10-04T15:13:36;102030.31;;;18.11;65.90
71768;BME280;59604;52.138;5.446;2022-10-04T15:19:29;102035.06;;;17.96;66.24
71768;BME280;59604;52.138;5.446;2022-10-04T15:22:02;102029.75;;;17.89;66.55
71768;BME280;59604;52.138;5.446;2022-10-04T15:24:50;102026.69;;;17.79;66.92
71768;BME280;59604;52.138;5.446;2022-10-04T15:30:48;102031.56;;;17.55;67.37
71768;BME280;59604;52.138;5.446;2022-10-04T15:36:02;102011.09;;;17.36;68.15
71768;BME280;59604;52.138;5.446;2022-10-04T15:43:44;102018.44;;;17.14;69.15
71768;BME280;59604;52.138;5.446;2022-10-04T15:46:30;102019.22;;;17.08;69.89
71768;BME280;59604;52.138;5.446;2022-10-04T16:00:18;102015.31;;;16.97;70.83
71768;BME280;59604;52.138;5.446;2022-10-04T16:06:27;102015.72;;;16.94;71.16
71768;BME280;59604;52.138;5.446;2022-10-04T16:23:34;102019.19;;;16.88;72.33
71768;BME280;59604;52.138;5.446;2022-10-04T16:37:41;102033.34;;;16.47;74.80
71768;BME280;59604;52.138;5.446;2022-10-04T16:58:59;102032.78;;;16.17;75.96
71768;BME280;59604;52.138;5.446;2022-10-04T17:07:13;102019.47;;;16.17;76.26
71768;BME280;59604;52.138;5.446;2022-10-04T17:12:50;102028.66;;;16.14;76.30
71768;BME280;59604;52.138;5.446;2022-10-04T17:15:32;102029.69;;;16.13;76.22
71768;BME280;59604;52.138;5.446;2022-10-04T17:26:41;102023.94;;;16.10;76.73
71768;BME280;59604;52.138;5.446;2022-10-04T17:32:26;102030.44;;;16.07;77.03
71768;BME280;59604;52.138;5.446;2022-10-04T17:38:02;102028.00;;;16.06;76.94
71768;BME280;59604;52.138;5.446;2022-10-04T17:40:52;102028.16;;;16.04;77.18
71768;BME280;59604;52.138;5.446;2022-10-04T17:48:23;102026.09;;;16.00;77.55
71768;BME280;59604;52.138;5.446;2022-10-04T17:54:25;102033.44;;;15.98;77.67
71768;BME280;59604;52.138;5.446;2022-10-04T18:00:05;102037.50;;;15.93;77.94
71768;BME280;59604;52.138;5.446;2022-10-04T18:05:28;102037.31;;;15.95;78.31
71768;BME280;59604;52.138;5.446;2022-10-04T18:08:03;102039.97;;;15.95;78.13
71768;BME280;59604;52.138;5.446;2022-10-04T18:11:21;102027.09;;;15.92;78.02
71768;BME280;59604;52.138;5.446;2022-10-04T18:16:27;102011.13;;;15.92;78.21
71768;BME280;59604;52.138;5.446;2022-10-04T18:18:55;102013.97;;;15.90;78.34
71768;BME280;59604;52.138;5.446;2022-10-04T18:21:27;102017.47;;;15.91;78.17
71768;BME280;59604;52.138;5.446;2022-10-04T18:26:33;102024.59;;;15.90;78.34
71768;BME280;59604;52.138;5.446;2022-10-04T18:29:01;102024.59;;;15.90;78.37
71768;BME280;59604;52.138;5.446;2022-10-04T18:31:36;102031.75;;;15.90;78.71
71768;BME280;59604;52.138;5.446;2022-10-04T18:37:18;102023.78;;;15.90;78.57
71768;BME280;59604;52.138;5.446;2022-10-04T18:39:47;102020.50;;;15.88;78.32
71768;BME280;59604;52.138;5.446;2022-10-04T18:42:28;102029.47;;;15.87;78.87
71768;BME280;59604;52.138;5.446;2022-10-04T18:44:56;102018.03;;;15.86;79.00
71768;BME280;59604;52.138;5.446;2022-10-04T18:47:39;102024.56;;;15.84;79.01
71768;BME280;59604;52.138;5.446;2022-10-04T18:50:16;102026.22;;;15.85;78.85
71768;BME280;59604;52.138;5.446;2022-10-04T18:55:27;102016.78;;;15.82;79.24
71768;BME280;59604;52.138;5.446;2022-10-04T18:58:02;102018.81;;;15.80;79.27
71768;BME280;59604;52.138;5.446;2022-10-04T19:01:00;102019.81;;;15.79;79.28
71768;BME280;59604;52.138;5.446;2022-10-04T19:04:02;102017.16;;;15.79;79.31
71768;BME280;59604;52.138;5.446;2022-10-04T19:06:35;102013.69;;;15.79;79.57
71768;BME280;59604;52.138;5.446;2022-10-04T19:09:03;102004.28;;;15.76;79.69
71768;BME280;59604;52.138;5.446;2022-10-04T19:12:09;101991.00;;;15.76;79.72
71768;BME280;59604;52.138;5.446;2022-10-04T19:25:56;101960.72;;;15.70;80.03
71768;BME280;59604;52.138;5.446;2022-10-04T19:28:49;101961.72;;;15.69;80.09
71768;BME280;59604;52.138;5.446;2022-10-04T19:31:23;101955.59;;;15.69;79.99
71768;BME280;59604;52.138;5.446;2022-10-04T19:34:03;101951.28;;;15.68;79.88
71768;BME280;59604;52.138;5.446;2022-10-04T19:36:50;101963.75;;;15.67;79.94
71768;BME280;59604;52.138;5.446;2022-10-04T19:39:33;101960.28;;;15.67;80.09
71768;BME280;59604;52.138;5.446;2022-10-04T19:42:11;101962.94;;;15.67;79.89
71768;BME280;59604;52.138;5.446;2022-10-04T19:52:49;101942.03;;;15.64;80.02
71768;BME280;59604;52.138;5.446;2022-10-04T19:55:20;101956.34;;;15.63;79.99
71768;BME280;59604;52.138;5.446;2022-10-04T19:57:50;101969.63;;;15.63;80.07
71768;BME280;59604;52.138;5.446;2022-10-04T20:00:19;101962.66;;;15.62;79.96
71768;BME280;59604;52.138;5.446;2022-10-04T20:02:46;101979.59;;;15.61;80.16
71768;BME280;59604;52.138;5.446;2022-10-04T20:05:17;101974.50;;;15.59;79.83
71768;BME280;59604;52.138;5.446;2022-10-04T20:07:55;101970.81;;;15.60;80.13
71768;BME280;59604;52.138;5.446;2022-10-04T20:10:29;101965.72;;;15.59;79.98
71768;BME280;59604;52.138;5.446;2022-10-04T20:13:15;101962.25;;;15.58;79.96
71768;BME280;59604;52.138;5.446;2022-10-04T20:15:45;101972.03;;;15.58;80.20
71768;BME280;59604;52.138;5.446;2022-10-04T20:21:04;101966.91;;;15.56;80.14
71768;BME280;59604;52.138;5.446;2022-10-04T20:26:07;101983.03;;;15.55;79.86
71768;BME280;59604;52.138;5.446;2022-10-04T20:33:54;101968.94;;;15.54;79.64
71768;BME280;59604;52.138;5.446;2022-10-04T20:38:57;101960.13;;;15.54;79.60
71768;BME280;59604;52.138;5.446;2022-10-04T20:43:58;101955.03;;;15.52;79.93
71768;BME280;59604;52.138;5.446;2022-10-04T20:46:37;101959.53;;;15.52;79.83
71768;BME280;59604;52.138;5.446;2022-10-04T20:49:13;101973.63;;;15.52;79.81
71768;BME280;59604;52.138;5.446;2022-10-04T20:51:48;101972.81;;;15.52;80.08
71768;BME280;59604;52.138;5.446;2022-10-04T20:54:19;101969.34;;;15.51;79.75
71768;BME280;59604;52.138;5.446;2022-10-04T20:56:47;101977.47;;;15.50;79.95
71768;BME280;59604;52.138;5.446;2022-10-04T20:59:16;101988.09;;;15.50;79.91
71768;BME280;59604;52.138;5.446;2022-10-04T21:02:01;101988.31;;;15.48;80.01
71768;BME280;59604;52.138;5.446;2022-10-04T21:04:34;101984.81;;;15.48;80.10
71768;BME280;59604;52.138;5.446;2022-10-04T21:07:09;101989.13;;;15.49;80.22
71768;BME280;59604;52.138;5.446;2022-10-04T21:09:40;101990.94;;;15.48;80.02
71768;BME280;59604;52.138;5.446;2022-10-04T21:12:38;101994.63;;;15.47;79.99
71768;BME280;59604;52.138;5.446;2022-10-04T21:18:03;101995.81;;;15.44;80.15
71768;BME280;59604;52.138;5.446;2022-10-04T21:20:47;101987.03;;;15.44;80.15
71768;BME280;59604;52.138;5.446;2022-10-04T21:23:52;101991.53;;;15.43;80.19
71768;BME280;59604;52.138;5.446;2022-10-04T21:26:19;101997.84;;;15.42;80.11
71768;BME280;59604;52.138;5.446;2022-10-04T21:28:47;101998.84;;;15.41;80.42
71768;BME280;59604;52.138;5.446;2022-10-04T21:31:17;102000.69;;;15.41;80.19
71768;BME280;59604;52.138;5.446;2022-10-04T21:33:44;101993.75;;;15.40;80.21
71768;BME280;59604;52.138;5.446;2022-10-04T21:36:10;102005.38;;;15.39;80.66
71768;BME280;59604;52.138;5.446;2022-10-04T21:38:37;102002.72;;;15.39;80.47
71768;BME280;59604;52.138;5.446;2022-10-04T21:41:03;102001.88;;;15.38;80.72
71768;BME280;59604;52.138;5.446;2022-10-04T21:43:30;101996.78;;;15.37;80.75
71768;BME280;59604;52.138;5.446;2022-10-04T21:45:56;101991.66;;;15.35;80.76
71768;BME280;59604;52.138;5.446;2022-10-04T21:48:23;101993.31;;;15.36;80.63
71768;BME280;59604;52.138;5.446;2022-10-04T21:50:53;101982.69;;;15.36;80.71
71768;BME280;59604;52.138;5.446;2022-10-04T21:53:20;101979.22;;;15.36;80.42
71768;BME280;59604;52.138;5.446;2022-10-04T21:55:47;101987.19;;;15.36;80.92
71768;BME280;59604;52.138;5.446;2022-10-04T21:58:13;101985.34;;;15.36;80.63
71768;BME280;59604;52.138;5.446;2022-10-04T22:00:40;101985.34;;;15.36;80.71
71768;BME280;59604;52.138;5.446;2022-10-04T22:03:06;101980.22;;;15.35;80.81
71768;BME280;59604;52.138;5.446;2022-10-04T22:05:34;101979.41;;;15.34;80.99
71768;BME280;59604;52.138;5.446;2022-10-04T22:08:00;101978.56;;;15.34;80.84
71768;BME280;59604;52.138;5.446;2022-10-04T22:10:27;101970.81;;;15.32;80.77
71768;BME280;59604;52.138;5.446;2022-10-04T22:12:53;101973.47;;;15.32;81.21
71768;BME280;59604;52.138;5.446;2022-10-04T22:15:26;101976.13;;;15.32;81.15
71768;BME280;59604;52.138;5.446;2022-10-04T22:17:53;101975.31;;;15.32;80.97
71768;BME280;59604;52.138;5.446;2022-10-04T22:20:20;101966.50;;;15.31;81.32
71768;BME280;59604;52.138;5.446;2022-10-04T22:22:47;101959.75;;;15.29;81.39
71768;BME280;59604;52.138;5.446;2022-10-04T22:25:19;101962.59;;;15.27;81.37
71768;BME280;59604;52.138;5.446;2022-10-04T22:27:46;101945.84;;;15.27;81.36
71768;BME280;59604;52.138;5.446;2022-10-04T22:32:45;101950.53;;;15.25;81.32
71768;BME280;59604;52.138;5.446;2022-10-04T22:35:15;101941.72;;;15.24;81.21
71768;BME280;59604;52.138;5.446;2022-10-04T22:37:42;101940.75;;;15.25;81.55
71768;BME280;59604;52.138;5.446;2022-10-04T22:40:24;101941.94;;;15.22;81.40
71768;BME280;59604;52.138;5.446;2022-10-04T22:42:51;101936.63;;;15.22;81.39
71768;BME280;59604;52.138;5.446;2022-10-04T22:45:24;101935.00;;;15.21;81.55
71768;BME280;59604;52.138;5.446;2022-10-04T22:47:52;101925.38;;;15.20;81.71
71768;BME280;59604;52.138;5.446;2022-10-04T22:50:31;101929.03;;;15.19;81.69
71768;BME280;59604;52.138;5.446;2022-10-04T22:53:03;101927.41;;;15.18;81.71
71768;BME280;59604;52.138;5.446;2022-10-04T22:55:35;101930.88;;;15.19;81.77
71768;BME280;59604;52.138;5.446;2022-10-04T22:58:02;101931.91;;;15.18;81.62
71768;BME280;59604;52.138;5.446;2022-10-04T23:00:29;101924.94;;;15.17;81.79
71768;BME280;59604;52.138;5.446;2022-10-04T23:02:55;101927.56;;;15.17;81.99